createdAt,value
2022-11-17T00:00:31.984Z,100.00
2022-11-17T00:05:36.055Z,100.00
2022-11-17T00:10:38.846Z,100.00
2022-11-17T00:15:44.619Z,100.00
2022-11-17T00:21:05.865Z,100.00
2022-11-17T00:26:08.863Z,100.00
2022-11-17T00:31:32.493Z,100.00
2022-11-17T00:36:40.712Z,100.00
2022-11-17T00:41:44.062Z,100.00
2022-11-17T00:46:47.007Z,100.00
2022-11-17T00:51:50.039Z,100.00
2022-11-17T00:56:52.988Z,100.00
2022-11-17T01:01:55.792Z,100.00
2022-11-17T01:06:58.749Z,100.00
2022-11-17T01:12:01.696Z,100.00
2022-11-17T01:17:04.539Z,100.00
2022-11-17T01:22:07.555Z,100.00
2022-11-17T01:27:10.484Z,100.00
2022-11-17T01:32:13.344Z,100.00
2022-11-17T01:37:22.019Z,100.00
2022-11-17T01:42:26.919Z,100.00
2022-11-17T01:47:47.324Z,100.00
2022-11-17T01:52:55.360Z,100.00
2022-11-17T01:58:06.591Z,100.00
2022-11-17T02:03:10.015Z,100.00
2022-11-17T02:08:13.671Z,100.00
2022-11-17T02:13:16.841Z,100.00
2022-11-17T02:18:20.133Z,100.00
2022-11-17T02:23:41.695Z,100.00
2022-11-17T02:28:52.932Z,100.00
2022-11-17T02:34:15.723Z,100.00
2022-11-17T02:39:37.094Z,100.00
2022-11-17T02:45:03.519Z,100.00
2022-11-17T02:50:10.700Z,100.00
2022-11-17T02:55:14.547Z,100.00
2022-11-17T03:00:19.689Z,100.00
2022-11-17T03:05:47.581Z,100.00
2022-11-17T03:11:04.070Z,100.00
2022-11-17T03:16:23.773Z,100.00
2022-11-17T03:21:37.098Z,100.00
2022-11-17T03:26:46.003Z,100.00
2022-11-17T03:31:52.342Z,100.00
2022-11-17T03:37:03.264Z,100.00
2022-11-17T03:42:13.564Z,100.00
2022-11-17T03:47:20.844Z,100.00
2022-11-17T03:52:25.265Z,100.00
2022-11-17T03:57:54.863Z,100.00
2022-11-17T04:03:00.906Z,100.00
2022-11-17T04:08:04.193Z,100.00
2022-11-17T04:13:27.822Z,100.00
2022-11-17T04:18:31.237Z,100.00
2022-11-17T04:23:34.297Z,100.00
2022-11-17T04:28:42.539Z,100.00
2022-11-17T04:33:54.371Z,100.00
2022-11-17T04:38:59.677Z,100.00
2022-11-17T04:44:03.748Z,100.00
2022-11-17T04:49:08.079Z,100.00
2022-11-17T04:54:13.379Z,100.00
2022-11-17T04:59:16.476Z,100.00
2022-11-17T05:04:40.016Z,100.00
2022-11-17T05:09:43.046Z,100.00
2022-11-17T05:14:47.801Z,100.00
2022-11-17T05:19:50.950Z,100.00
2022-11-17T05:24:54.183Z,100.00
2022-11-17T05:29:57.159Z,100.00
2022-11-17T05:35:00.052Z,100.00
2022-11-17T05:40:03.042Z,100.00
2022-11-17T05:45:06.744Z,100.00
2022-11-17T05:50:10.120Z,100.00
2022-11-17T05:55:13.150Z,100.00
2022-11-17T06:00:16.674Z,100.00
2022-11-17T06:05:20.844Z,100.00
2022-11-17T06:10:23.793Z,100.00
2022-11-17T06:15:27.207Z,100.00
2022-11-17T06:20:38.693Z,100.00
2022-11-17T06:25:42.048Z,100.00
2022-11-17T06:30:45.369Z,100.00
2022-11-17T06:35:49.398Z,100.00
2022-11-17T06:40:52.401Z,100.00
2022-11-17T06:45:55.274Z,100.00
2022-11-17T06:50:58.172Z,100.00
2022-11-17T06:56:04.646Z,100.00
2022-11-17T07:01:12.616Z,100.00
2022-11-17T07:06:16.291Z,100.00
2022-11-17T07:11:19.455Z,100.00
2022-11-17T07:16:23.982Z,100.00
2022-11-17T07:21:27.089Z,100.00
2022-11-17T07:26:30.740Z,100.00
2022-11-17T07:31:36.869Z,100.00
2022-11-17T07:36:39.761Z,100.00
2022-11-17T07:41:42.642Z,100.00
2022-11-17T07:46:45.656Z,100.00
2022-11-17T07:51:48.890Z,100.00
2022-11-17T07:56:51.790Z,100.00
2022-11-17T08:01:54.684Z,100.00
2022-11-17T08:06:58.449Z,100.00
2022-11-17T08:12:01.502Z,100.00
2022-11-17T08:17:04.514Z,100.00
2022-11-17T08:22:07.695Z,100.00
2022-11-17T08:27:10.670Z,100.00
2022-11-17T08:32:13.626Z,100.00
2022-11-17T08:37:16.912Z,100.00
2022-11-17T08:42:19.861Z,100.00
2022-11-17T08:47:22.962Z,100.00
2022-11-17T08:52:28.794Z,100.00
2022-11-17T08:57:32.876Z,98.75
2022-11-17T09:02:37.956Z,96.64
2022-11-17T09:07:41.426Z,94.78
2022-11-17T09:12:44.481Z,92.91
2022-11-17T09:17:48.098Z,91.84
2022-11-17T09:22:51.529Z,90.09
2022-11-17T09:27:54.548Z,88.89
2022-11-17T09:32:58.426Z,87.68
2022-11-17T09:38:01.809Z,87.54
2022-11-17T09:43:15.149Z,87.39
2022-11-17T09:48:40.711Z,87.81
2022-11-17T09:54:26.040Z,87.33
2022-11-17T09:59:31.373Z,88.32
2022-11-17T10:04:34.524Z,87.55
2022-11-17T10:09:45.568Z,85.91
2022-11-17T10:14:50.174Z,83.34
2022-11-17T10:19:53.240Z,81.13
2022-11-17T10:24:57.978Z,78.22
2022-11-17T10:30:19.719Z,75.11
2022-11-17T10:35:32.786Z,77.83
2022-11-17T10:40:39.081Z,77.69
2022-11-17T10:45:56.601Z,76.61
2022-11-17T10:51:03.228Z,77.12
2022-11-17T10:56:21.704Z,76.46
2022-11-17T11:01:30.900Z,76.25
2022-11-17T11:06:35.965Z,77.70
2022-11-17T11:11:47.810Z,78.07
2022-11-17T11:16:51.724Z,78.89
2022-11-17T11:22:34.470Z,79.46
2022-11-17T11:28:25.269Z,80.47
2022-11-17T11:33:39.116Z,80.42
2022-11-17T11:38:55.814Z,81.06
2022-11-17T11:44:19.906Z,81.65
2022-11-17T11:50:02.985Z,82.87
2022-11-17T11:55:35.400Z,82.68
2022-11-17T12:00:42.737Z,82.91
2022-11-17T12:06:40.690Z,82.56
2022-11-17T12:12:03.320Z,83.14
2022-11-17T12:17:26.072Z,83.05
2022-11-17T12:22:32.317Z,82.52
2022-11-17T12:27:35.264Z,83.10
2022-11-17T12:32:44.916Z,83.09
2022-11-17T12:37:47.800Z,81.81
2022-11-17T12:43:15.793Z,82.04
2022-11-17T12:48:33.914Z,81.07
2022-11-17T12:53:59.816Z,79.83
2022-11-17T12:59:52.318Z,79.66
2022-11-17T13:05:11.147Z,79.46
2022-11-17T13:10:29.985Z,80.49
2022-11-17T13:15:32.933Z,81.13
2022-11-17T13:20:38.693Z,80.74
2022-11-17T13:25:41.574Z,80.74
2022-11-17T13:30:47.014Z,81.11
2022-11-17T13:35:51.495Z,82.00
2022-11-17T13:40:54.548Z,82.66
2022-11-17T13:45:57.915Z,83.26
2022-11-17T13:51:39.996Z,84.23
2022-11-17T13:57:23.163Z,85.40
2022-11-17T14:02:29.468Z,86.21
2022-11-17T14:07:36.150Z,87.08
2022-11-17T14:12:39.534Z,87.66
2022-11-17T14:17:48.357Z,88.38
2022-11-17T14:23:10.391Z,89.05
2022-11-17T14:28:25.541Z,89.87
2022-11-17T14:33:28.396Z,90.57
2022-11-17T14:38:31.283Z,91.50
2022-11-17T14:43:34.561Z,92.01
2022-11-17T14:48:37.343Z,92.55
2022-11-17T14:53:42.011Z,93.13
2022-11-17T14:58:47.654Z,93.39
2022-11-17T15:03:53.129Z,94.04
2022-11-17T15:09:05.566Z,94.46
2022-11-17T15:14:10.643Z,94.86
2022-11-17T15:19:13.675Z,95.23
2022-11-17T15:24:16.947Z,95.38
2022-11-17T15:29:20.693Z,95.73
2022-11-17T15:34:23.647Z,96.05
2022-11-17T15:39:26.670Z,96.63
2022-11-17T15:44:31.947Z,97.38
2022-11-17T15:49:34.805Z,97.82
2022-11-17T15:54:37.810Z,98.38
2022-11-17T15:59:40.699Z,98.73
2022-11-17T16:04:43.710Z,99.09
2022-11-17T16:09:49.171Z,99.49
2022-11-17T16:14:53.728Z,99.68
2022-11-17T16:19:56.784Z,100.00
2022-11-17T16:24:59.733Z,100.00
2022-11-17T16:30:02.678Z,100.00
2022-11-17T16:35:06.106Z,100.00
2022-11-17T16:40:10.159Z,100.00
2022-11-17T16:45:12.833Z,100.00
2022-11-17T16:50:16.393Z,100.00
2022-11-17T16:55:19.430Z,100.00
2022-11-17T17:00:22.441Z,100.00
2022-11-17T17:05:26.301Z,100.00
2022-11-17T17:10:29.335Z,100.00
2022-11-17T17:15:33.444Z,100.00
2022-11-17T17:20:36.314Z,100.00
2022-11-17T17:25:39.445Z,100.00
2022-11-17T17:30:42.771Z,100.00
2022-11-17T17:35:47.750Z,100.00
2022-11-17T17:40:50.795Z,100.00
2022-11-17T17:46:01.188Z,100.00
2022-11-17T17:51:17.057Z,100.00
2022-11-17T17:56:21.760Z,100.00
2022-11-17T18:01:28.579Z,100.00
2022-11-17T18:06:41.193Z,100.00
2022-11-17T18:11:49.377Z,100.00
2022-11-17T18:16:53.969Z,100.00
2022-11-17T18:21:56.853Z,100.00
2022-11-17T18:26:59.784Z,100.00
2022-11-17T18:32:02.798Z,100.00
2022-11-17T18:37:05.740Z,100.00
2022-11-17T18:42:09.271Z,100.00
2022-11-17T18:47:13.606Z,100.00
2022-11-17T18:52:16.608Z,100.00
2022-11-17T18:57:19.556Z,100.00
2022-11-17T19:02:22.548Z,100.00
2022-11-17T19:07:25.772Z,100.00
2022-11-17T19:12:28.616Z,100.00
2022-11-17T19:17:31.579Z,100.00
2022-11-17T19:22:35.338Z,100.00
2022-11-17T19:27:38.006Z,100.00
2022-11-17T19:32:41.066Z,100.00
2022-11-17T19:37:43.872Z,100.00
2022-11-17T19:42:51.286Z,100.00
2022-11-17T19:47:54.106Z,100.00
2022-11-17T19:52:57.620Z,100.00
2022-11-17T19:58:00.398Z,100.00
2022-11-17T20:03:03.527Z,100.00
2022-11-17T20:08:06.707Z,100.00
2022-11-17T20:13:09.582Z,100.00
2022-11-17T20:18:12.945Z,100.00
2022-11-17T20:23:15.869Z,100.00
2022-11-17T20:28:18.800Z,100.00
2022-11-17T20:33:22.949Z,100.00
2022-11-17T20:38:25.812Z,100.00
2022-11-17T20:43:29.678Z,100.00
2022-11-17T20:48:35.378Z,100.00
2022-11-17T20:53:39.519Z,100.00
2022-11-17T20:58:43.215Z,100.00
2022-11-17T21:03:46.124Z,100.00
2022-11-17T21:08:49.043Z,100.00
2022-11-17T21:13:51.949Z,100.00
2022-11-17T21:18:55.041Z,100.00
2022-11-17T21:23:58.202Z,100.00
2022-11-17T21:29:06.490Z,100.00
2022-11-17T21:34:16.719Z,100.00
2022-11-17T21:39:19.829Z,100.00
2022-11-17T21:44:22.830Z,100.00
2022-11-17T21:49:25.781Z,100.00
2022-11-17T21:54:28.750Z,100.00
2022-11-17T21:59:31.631Z,100.00
2022-11-17T22:04:34.542Z,100.00
2022-11-17T22:09:37.515Z,100.00
2022-11-17T22:14:40.413Z,100.00
2022-11-17T22:19:43.868Z,100.00
2022-11-17T22:24:49.798Z,100.00
2022-11-17T22:29:53.294Z,100.00
2022-11-17T22:34:56.185Z,100.00
2022-11-17T22:39:59.039Z,100.00
2022-11-17T22:45:01.960Z,100.00
2022-11-17T22:50:05.692Z,100.00
2022-11-17T22:55:08.965Z,100.00
2022-11-17T23:00:13.148Z,100.00
2022-11-17T23:05:16.176Z,100.00
2022-11-17T23:10:19.219Z,100.00
2022-11-17T23:15:22.232Z,100.00
2022-11-17T23:20:25.738Z,100.00
2022-11-17T23:25:28.704Z,100.00
2022-11-17T23:30:31.635Z,100.00
2022-11-17T23:35:34.704Z,100.00
2022-11-17T23:40:37.594Z,100.00
2022-11-17T23:45:40.504Z,100.00
2022-11-17T23:50:43.399Z,100.00
2022-11-17T23:55:55.206Z,100.00
